createdAt,value
2019-01-25T00:01:08.793Z,35.37
2019-01-25T00:03:56.550Z,37.00
2019-01-25T00:06:44.578Z,33.53
2019-01-25T00:09:32.456Z,34.97
2019-01-25T00:12:20.417Z,39.23
2019-01-25T00:15:08.755Z,43.63
2019-01-25T00:17:56.548Z,38.77
2019-01-25T00:20:44.767Z,37.23
2019-01-25T00:23:32.829Z,37.57
2019-01-25T00:26:20.568Z,35.63
2019-01-25T00:29:08.646Z,43.17
2019-01-25T00:31:56.812Z,33.43
2019-01-25T00:34:44.444Z,37.10
2019-01-25T00:37:32.174Z,38.43
2019-01-25T00:40:21.042Z,41.20
2019-01-25T00:43:09.430Z,36.27
2019-01-25T00:45:57.670Z,34.63
2019-01-25T00:48:45.506Z,40.67
2019-01-25T00:51:33.690Z,39.87
2019-01-25T00:54:21.961Z,45.00
2019-01-25T00:57:09.889Z,40.50
2019-01-25T00:59:57.819Z,41.97
2019-01-25T01:02:45.926Z,46.17
2019-01-25T01:05:34.134Z,42.57
2019-01-25T01:08:22.328Z,40.43
2019-01-25T01:11:10.546Z,38.23
2019-01-25T01:13:58.501Z,42.20
2019-01-25T01:16:46.212Z,45.33
2019-01-25T01:19:34.434Z,49.10
2019-01-25T01:22:22.370Z,48.03
2019-01-25T01:25:11.679Z,44.00
2019-01-25T01:27:59.621Z,48.67
2019-01-25T01:30:47.778Z,55.03
2019-01-25T01:33:35.663Z,48.37
2019-01-25T01:36:23.655Z,53.53
2019-01-25T01:39:11.773Z,48.90
2019-01-25T01:41:59.651Z,51.80
2019-01-25T01:44:47.648Z,46.63
2019-01-25T01:47:35.757Z,48.30
2019-01-25T01:50:23.362Z,48.83
2019-01-25T01:53:11.620Z,47.27
2019-01-25T01:55:59.212Z,54.90
2019-01-25T01:58:47.314Z,47.50
2019-01-25T02:01:35.054Z,50.40
2019-01-25T02:04:22.902Z,54.50
2019-01-25T02:07:11.213Z,51.30
2019-01-25T02:09:59.460Z,52.03
2019-01-25T02:12:47.030Z,51.67
2019-01-25T02:15:34.912Z,53.67
2019-01-25T02:18:22.543Z,53.43
2019-01-25T02:21:10.587Z,60.53
2019-01-25T02:23:58.405Z,51.53
2019-01-25T02:26:46.467Z,52.63
2019-01-25T02:29:34.442Z,53.90
2019-01-25T02:32:22.441Z,54.90
2019-01-25T02:35:10.597Z,48.53
2019-01-25T02:37:58.466Z,49.50
2019-01-25T02:40:46.474Z,49.40
2019-01-25T02:43:34.387Z,56.13
2019-01-25T02:46:22.487Z,52.73
2019-01-25T02:49:10.390Z,51.23
2019-01-25T02:51:58.083Z,49.40
2019-01-25T02:54:46.349Z,51.77
2019-01-25T02:57:34.547Z,55.93
2019-01-25T03:00:24.460Z,56.87
2019-01-25T03:03:12.080Z,51.13
2019-01-25T03:05:59.945Z,60.33
2019-01-25T03:08:48.393Z,65.67
2019-01-25T03:11:36.587Z,49.07
2019-01-25T03:14:24.746Z,48.87
2019-01-25T03:17:12.825Z,48.50
2019-01-25T03:20:00.847Z,54.97
2019-01-25T03:22:48.981Z,54.27
2019-01-25T03:25:36.932Z,49.13
2019-01-25T03:28:24.837Z,49.00
2019-01-25T03:31:12.945Z,48.83
2019-01-25T03:34:00.965Z,46.67
2019-01-25T03:36:48.752Z,50.03
2019-01-25T03:39:36.769Z,44.10
2019-01-25T03:42:25.151Z,50.47
2019-01-25T03:45:14.710Z,39.70
2019-01-25T03:48:02.765Z,47.93
2019-01-25T03:50:50.877Z,45.43
2019-01-25T03:53:38.728Z,44.33
2019-01-25T03:56:28.751Z,45.70
2019-01-25T03:59:16.551Z,44.07
2019-01-25T04:02:04.973Z,50.13
2019-01-25T04:04:52.900Z,49.30
2019-01-25T04:07:40.852Z,46.33
2019-01-25T04:10:29.772Z,47.97
2019-01-25T04:13:17.878Z,46.60
2019-01-25T04:16:06.266Z,45.93
2019-01-25T04:18:54.399Z,43.17
2019-01-25T04:21:42.546Z,45.83
2019-01-25T04:24:30.382Z,47.33
2019-01-25T04:27:18.229Z,46.77
2019-01-25T04:30:08.515Z,46.70
2019-01-25T04:32:56.413Z,47.60
2019-01-25T04:35:44.220Z,48.47
2019-01-25T04:38:32.146Z,46.40
2019-01-25T04:41:20.349Z,51.30
2019-01-25T04:44:08.559Z,44.50
2019-01-25T04:46:56.428Z,49.33
2019-01-25T04:49:44.419Z,45.07
2019-01-25T04:52:31.883Z,52.70
2019-01-25T04:55:28.520Z,48.40
2019-01-25T04:58:18.187Z,52.57
2019-01-25T05:01:10.639Z,51.07
2019-01-25T05:03:58.845Z,50.90
2019-01-25T05:06:47.018Z,51.67
2019-01-25T05:09:39.121Z,51.87
2019-01-25T05:12:27.231Z,42.17
2019-01-25T05:15:15.025Z,46.67
2019-01-25T05:18:02.568Z,47.63
2019-01-25T05:20:51.024Z,49.73
2019-01-25T05:23:38.741Z,43.47
2019-01-25T05:26:26.960Z,46.77
2019-01-25T05:29:14.511Z,43.97
2019-01-25T05:32:06.018Z,43.93
2019-01-25T05:34:53.929Z,45.67
2019-01-25T05:37:42.065Z,45.67
2019-01-25T05:40:30.428Z,48.57
2019-01-25T05:43:18.601Z,41.87
2019-01-25T05:46:06.807Z,43.97
2019-01-25T05:48:54.595Z,47.60
2019-01-25T05:51:42.844Z,40.23
2019-01-25T05:54:31.053Z,40.90
2019-01-25T05:57:19.016Z,52.87
2019-01-25T06:00:10.710Z,54.73
2019-01-25T06:03:05.572Z,47.97
2019-01-25T06:05:59.693Z,52.57
2019-01-25T06:08:47.499Z,46.07
2019-01-25T06:11:39.158Z,53.93
2019-01-25T06:14:27.492Z,50.37
2019-01-25T06:17:15.623Z,50.73
2019-01-25T06:20:04.148Z,65.23
2019-01-25T06:22:54.937Z,58.43
2019-01-25T06:25:42.597Z,58.03
2019-01-25T06:28:30.493Z,56.17
2019-01-25T06:31:20.524Z,54.17
2019-01-25T06:34:08.743Z,55.87
2019-01-25T06:36:56.502Z,58.57
2019-01-25T06:39:44.964Z,57.70
2019-01-25T06:42:32.864Z,57.30
2019-01-25T06:45:20.680Z,58.23
2019-01-25T06:48:09.145Z,55.67
2019-01-25T06:50:57.232Z,61.87
2019-01-25T06:53:44.937Z,61.47
2019-01-25T06:56:32.837Z,56.90
2019-01-25T06:59:23.901Z,49.90
2019-01-25T07:02:15.242Z,47.20
2019-01-25T07:05:03.124Z,49.57
2019-01-25T07:07:51.349Z,52.97
2019-01-25T07:10:39.694Z,46.00
2019-01-25T07:13:27.812Z,50.57
2019-01-25T07:16:16.005Z,56.07
2019-01-25T07:19:04.228Z,45.27
2019-01-25T07:21:52.421Z,47.87
2019-01-25T07:24:40.389Z,47.60
2019-01-25T07:27:28.099Z,50.47
2019-01-25T07:30:16.352Z,49.90
2019-01-25T07:33:04.497Z,54.43
2019-01-25T07:35:52.384Z,48.93
2019-01-25T07:38:40.456Z,52.03
2019-01-25T07:41:28.912Z,54.97
2019-01-25T07:44:17.185Z,51.63
2019-01-25T07:47:05.594Z,51.20
2019-01-25T07:49:53.455Z,51.97
2019-01-25T07:52:41.722Z,51.47
2019-01-25T07:55:29.761Z,53.13
2019-01-25T07:58:17.944Z,54.03
2019-01-25T08:01:06.092Z,53.60
2019-01-25T08:03:54.274Z,55.40
2019-01-25T08:06:42.364Z,58.47
2019-01-25T08:09:30.301Z,54.30
2019-01-25T08:12:18.464Z,50.27
2019-01-25T08:15:08.396Z,48.13
2019-01-25T08:17:56.013Z,48.63
2019-01-25T08:20:44.230Z,55.53
2019-01-25T08:23:32.095Z,58.07
2019-01-25T08:26:20.281Z,52.70
2019-01-25T08:29:08.259Z,54.47
2019-01-25T08:31:56.558Z,51.90
2019-01-25T08:34:44.657Z,53.17
2019-01-25T08:37:32.648Z,58.17
2019-01-25T08:40:20.906Z,61.13
2019-01-25T08:43:09.101Z,54.90
2019-01-25T08:45:56.806Z,55.00
2019-01-25T08:48:45.145Z,56.87
2019-01-25T08:51:33.125Z,66.40
2019-01-25T08:54:21.072Z,64.80
2019-01-25T08:57:09.114Z,57.83
2019-01-25T08:59:56.988Z,58.50
2019-01-25T09:02:44.977Z,59.90
2019-01-25T09:05:32.944Z,59.50
2019-01-25T09:08:20.771Z,57.57
2019-01-25T09:11:08.573Z,55.70
2019-01-25T09:13:56.556Z,58.47
2019-01-25T09:16:44.601Z,56.83
2019-01-25T09:19:32.136Z,57.63
2019-01-25T09:22:19.887Z,57.30
2019-01-25T09:25:08.423Z,52.33
2019-01-25T09:27:56.567Z,55.50
2019-01-25T09:30:44.074Z,53.30
2019-01-25T09:33:31.554Z,51.73
2019-01-25T09:36:19.545Z,55.63
2019-01-25T09:39:09.590Z,54.77
2019-01-25T09:41:57.592Z,51.13
2019-01-25T09:44:45.518Z,48.53
2019-01-25T09:47:33.434Z,54.93
2019-01-25T09:50:21.803Z,55.57
2019-01-25T09:53:09.620Z,56.07
2019-01-25T09:55:57.679Z,49.17
2019-01-25T09:58:47.253Z,48.30
2019-01-25T10:01:35.371Z,54.97
2019-01-25T10:04:23.668Z,46.20
2019-01-25T10:07:11.950Z,50.33
2019-01-25T10:09:59.932Z,50.77
2019-01-25T10:12:47.822Z,51.30
2019-01-25T10:15:35.532Z,49.23
2019-01-25T10:18:24.976Z,45.63
2019-01-25T10:21:12.616Z,49.87
2019-01-25T10:24:00.304Z,49.13
2019-01-25T10:26:48.406Z,50.10
2019-01-25T10:29:36.100Z,45.67
2019-01-25T10:32:24.418Z,48.93
2019-01-25T10:35:13.096Z,48.60
2019-01-25T10:38:01.273Z,48.53
2019-01-25T10:40:49.144Z,44.03
2019-01-25T10:43:36.703Z,57.10
2019-01-25T10:46:24.713Z,48.07
2019-01-25T10:49:13.165Z,51.17
2019-01-25T10:52:01.179Z,50.27
2019-01-25T10:54:49.284Z,46.83
2019-01-25T10:57:36.922Z,54.63
2019-01-25T11:00:25.102Z,49.33
2019-01-25T11:03:13.025Z,52.10
2019-01-25T11:06:01.368Z,49.63
2019-01-25T11:08:49.626Z,54.40
2019-01-25T11:11:37.868Z,45.87
2019-01-25T11:14:26.136Z,51.43
2019-01-25T11:17:14.147Z,50.20
2019-01-25T11:20:02.301Z,52.13
2019-01-25T11:22:50.608Z,54.07
2019-01-25T11:25:39.731Z,51.67
2019-01-25T11:28:27.884Z,51.13
2019-01-25T11:31:15.710Z,42.27
2019-01-25T11:34:03.561Z,50.80
2019-01-25T11:36:52.208Z,43.83
2019-01-25T11:39:40.350Z,39.23
2019-01-25T11:42:28.529Z,42.23
2019-01-25T11:45:16.510Z,43.13
2019-01-25T11:48:07.936Z,47.20
2019-01-25T11:50:56.029Z,40.67
2019-01-25T11:53:44.155Z,43.40
2019-01-25T11:56:32.039Z,42.33
2019-01-25T11:59:20.175Z,38.90
2019-01-25T12:02:08.649Z,42.27
2019-01-25T12:04:56.329Z,39.47
2019-01-25T12:07:44.287Z,40.70
2019-01-25T12:10:32.444Z,39.33
2019-01-25T12:13:20.006Z,37.07
2019-01-25T12:16:07.802Z,38.17
2019-01-25T12:18:55.922Z,48.10
2019-01-25T12:21:43.585Z,38.17
2019-01-25T12:24:32.550Z,35.27
2019-01-25T12:27:20.776Z,33.47
2019-01-25T12:30:14.533Z,29.97
2019-01-25T12:33:02.155Z,30.70
2019-01-25T12:35:50.139Z,30.17
2019-01-25T12:38:38.008Z,40.87
2019-01-25T12:41:26.158Z,31.43
2019-01-25T12:44:14.006Z,38.47
2019-01-25T12:47:02.068Z,38.00
2019-01-25T12:49:49.732Z,32.70
2019-01-25T12:52:37.830Z,36.43
2019-01-25T12:55:25.597Z,34.90
2019-01-25T12:58:13.466Z,33.70
2019-01-25T13:01:02.206Z,30.77
2019-01-25T13:03:50.729Z,36.17
2019-01-25T13:06:38.855Z,35.13
2019-01-25T13:09:27.089Z,31.43
2019-01-25T13:12:15.604Z,33.77
2019-01-25T13:15:05.324Z,32.87
2019-01-25T13:17:53.335Z,40.33
2019-01-25T13:20:43.181Z,34.93
2019-01-25T13:23:31.097Z,38.57
2019-01-25T13:26:18.900Z,32.37
2019-01-25T13:29:07.079Z,34.00
2019-01-25T13:31:55.216Z,33.87
2019-01-25T13:34:43.626Z,32.17
2019-01-25T13:37:31.827Z,30.17
2019-01-25T13:40:21.313Z,33.07
2019-01-25T13:43:09.437Z,33.40
2019-01-25T13:45:57.510Z,36.40
2019-01-25T13:48:45.382Z,34.40
2019-01-25T13:51:33.235Z,33.73
2019-01-25T13:54:21.412Z,31.17
2019-01-25T13:57:09.556Z,35.57
2019-01-25T13:59:57.697Z,30.43
2019-01-25T14:02:45.801Z,29.47
2019-01-25T14:05:33.842Z,35.97
2019-01-25T14:08:21.880Z,31.43
2019-01-25T14:11:10.467Z,33.90
2019-01-25T14:13:58.728Z,30.00
2019-01-25T14:16:46.802Z,33.47
2019-01-25T14:19:34.772Z,28.63
2019-01-25T14:22:22.965Z,27.90
2019-01-25T14:25:11.171Z,32.57
2019-01-25T14:27:59.138Z,29.43
2019-01-25T14:30:47.393Z,33.07
2019-01-25T14:33:35.203Z,30.73
2019-01-25T14:36:23.436Z,30.53
2019-01-25T14:39:11.522Z,29.30
2019-01-25T14:42:00.020Z,29.20
2019-01-25T14:44:48.100Z,31.60
2019-01-25T14:47:36.304Z,24.07
2019-01-25T14:50:24.983Z,33.20
2019-01-25T14:53:12.898Z,29.30
2019-01-25T14:56:01.191Z,29.13
2019-01-25T14:58:49.395Z,34.13
2019-01-25T15:01:36.975Z,27.37
2019-01-25T15:04:25.105Z,31.33
2019-01-25T15:07:12.757Z,27.30
2019-01-25T15:10:01.084Z,24.83
2019-01-25T15:12:49.595Z,28.03
2019-01-25T15:15:37.776Z,28.67
2019-01-25T15:18:26.246Z,26.37
2019-01-25T15:21:14.082Z,25.83
2019-01-25T15:24:02.078Z,25.40
2019-01-25T15:26:49.776Z,29.20
2019-01-25T15:29:37.975Z,25.87
2019-01-25T15:32:25.585Z,27.90
2019-01-25T15:35:14.414Z,25.43
2019-01-25T15:38:02.762Z,27.40
2019-01-25T15:40:50.795Z,29.07
2019-01-25T15:43:39.145Z,28.00
2019-01-25T15:46:27.569Z,26.33
2019-01-25T15:49:15.209Z,27.17
2019-01-25T15:52:03.360Z,23.83
2019-01-25T15:54:51.442Z,23.60
2019-01-25T15:57:39.331Z,27.77
2019-01-25T16:00:29.083Z,24.53
2019-01-25T16:03:17.423Z,26.17
2019-01-25T16:06:05.844Z,24.80
2019-01-25T16:08:53.313Z,32.27
2019-01-25T16:11:41.625Z,27.60
2019-01-25T16:14:29.511Z,28.07
2019-01-25T16:17:17.736Z,80.77
2019-01-25T16:20:07.591Z,40.10
2019-01-25T16:22:55.852Z,33.03
2019-01-25T16:25:43.918Z,26.73
2019-01-25T16:28:32.228Z,32.23
2019-01-25T16:31:20.574Z,24.90
2019-01-25T16:34:08.346Z,26.23
2019-01-25T16:36:55.892Z,31.50
2019-01-25T16:39:43.436Z,29.07
2019-01-25T16:42:31.348Z,26.23
2019-01-25T16:45:21.637Z,28.97
2019-01-25T16:48:09.598Z,28.87
2019-01-25T16:50:57.791Z,29.83
2019-01-25T16:53:45.483Z,28.33
2019-01-25T16:56:33.365Z,29.03
2019-01-25T16:59:21.006Z,27.20
2019-01-25T17:02:08.934Z,26.27
2019-01-25T17:04:56.856Z,29.50
2019-01-25T17:07:44.724Z,23.73
2019-01-25T17:10:32.743Z,26.90
2019-01-25T17:13:21.064Z,30.13
2019-01-25T17:16:09.482Z,23.77
2019-01-25T17:18:57.183Z,28.70
2019-01-25T17:21:45.259Z,27.37
2019-01-25T17:24:33.049Z,29.40
2019-01-25T17:27:20.847Z,27.17
2019-01-25T17:30:16.509Z,31.20
2019-01-25T17:33:04.689Z,26.73
2019-01-25T17:35:52.245Z,27.03
2019-01-25T17:38:40.416Z,26.33
2019-01-25T17:41:28.110Z,27.10
2019-01-25T17:44:16.141Z,28.33
2019-01-25T17:47:03.907Z,29.70
2019-01-25T17:49:54.871Z,30.43
2019-01-25T17:52:43.039Z,29.80
2019-01-25T17:55:30.909Z,30.60
2019-01-25T17:58:19.320Z,26.60
2019-01-25T18:01:07.312Z,31.77
2019-01-25T18:03:55.450Z,31.93
2019-01-25T18:06:42.991Z,26.30
2019-01-25T18:09:31.215Z,28.33
2019-01-25T18:12:19.156Z,26.67
2019-01-25T18:15:07.991Z,31.43
2019-01-25T18:17:56.236Z,28.67
2019-01-25T18:20:44.213Z,33.63
2019-01-25T18:23:32.439Z,29.80
2019-01-25T18:26:23.297Z,29.73
2019-01-25T18:29:17.696Z,32.47
2019-01-25T18:32:06.167Z,30.63
2019-01-25T18:34:54.167Z,27.83
2019-01-25T18:37:42.064Z,29.27
2019-01-25T18:40:30.159Z,25.23
2019-01-25T18:43:18.307Z,28.73
2019-01-25T18:46:06.530Z,27.23
2019-01-25T18:48:54.601Z,26.57
2019-01-25T18:51:42.704Z,25.50
2019-01-25T18:54:30.666Z,27.50
2019-01-25T18:57:18.344Z,29.00
2019-01-25T19:00:09.107Z,28.10
2019-01-25T19:02:56.933Z,25.40
2019-01-25T19:05:45.043Z,28.03
2019-01-25T19:08:32.991Z,24.47
2019-01-25T19:11:20.831Z,27.33
2019-01-25T19:14:09.060Z,25.17
2019-01-25T19:16:56.746Z,22.17
2019-01-25T19:19:45.014Z,23.87
2019-01-25T19:22:33.055Z,20.60
2019-01-25T19:25:21.279Z,23.07
2019-01-25T19:28:09.514Z,25.13
2019-01-25T19:30:57.643Z,23.23
2019-01-25T19:33:45.486Z,28.03
2019-01-25T19:36:33.730Z,24.33
2019-01-25T19:39:21.960Z,28.43
2019-01-25T19:42:10.284Z,23.70
2019-01-25T19:44:58.522Z,23.03
2019-01-25T19:47:46.717Z,20.83
2019-01-25T19:50:34.771Z,22.10
2019-01-25T19:53:23.688Z,20.00
2019-01-25T19:56:11.277Z,20.40
2019-01-25T19:58:59.288Z,16.67
2019-01-25T20:01:47.924Z,19.83
2019-01-25T20:04:36.205Z,19.27
2019-01-25T20:07:24.389Z,19.73
2019-01-25T20:10:12.439Z,22.87
2019-01-25T20:13:00.610Z,23.10
2019-01-25T20:15:48.307Z,21.17
2019-01-25T20:18:36.171Z,19.00
2019-01-25T20:21:23.693Z,19.37
2019-01-25T20:24:11.959Z,19.37
2019-01-25T20:27:00.210Z,18.17
2019-01-25T20:29:48.064Z,23.33
2019-01-25T20:32:35.633Z,19.93
2019-01-25T20:35:26.296Z,19.60
2019-01-25T20:38:14.505Z,23.90
2019-01-25T20:41:03.356Z,22.27
2019-01-25T20:43:51.388Z,22.57
2019-01-25T20:46:39.540Z,21.03
2019-01-25T20:49:27.498Z,22.97
2019-01-25T20:52:15.778Z,25.60
2019-01-25T20:55:04.568Z,23.17
2019-01-25T20:57:52.205Z,25.13
2019-01-25T21:00:40.803Z,22.37
2019-01-25T21:03:29.131Z,24.17
2019-01-25T21:06:17.389Z,23.67
2019-01-25T21:09:08.792Z,22.70
2019-01-25T21:11:56.779Z,20.50
2019-01-25T21:14:44.834Z,21.97
2019-01-25T21:17:32.941Z,22.20
2019-01-25T21:20:26.590Z,22.20
2019-01-25T21:23:14.907Z,24.73
2019-01-25T21:26:02.816Z,27.13
2019-01-25T21:28:51.191Z,24.17
2019-01-25T21:31:39.830Z,23.43
2019-01-25T21:34:28.763Z,21.83
2019-01-25T21:37:16.547Z,20.40
2019-01-25T21:40:08.660Z,19.80
2019-01-25T21:42:54.685Z,23.40
2019-01-25T21:45:43.480Z,24.27
2019-01-25T21:48:31.864Z,25.10
2019-01-25T21:51:19.825Z,24.63
2019-01-25T21:54:07.992Z,24.10
2019-01-25T21:56:56.383Z,22.67
2019-01-25T21:59:44.327Z,22.73
2019-01-25T22:02:32.648Z,19.53
2019-01-25T22:05:20.588Z,26.23
2019-01-25T22:08:08.817Z,22.47
2019-01-25T22:10:57.033Z,23.97
2019-01-25T22:13:52.635Z,26.70
2019-01-25T22:16:34.936Z,23.30
2019-01-25T22:19:23.335Z,24.77
2019-01-25T22:22:11.672Z,21.53
2019-01-25T22:25:00.175Z,22.97
2019-01-25T22:27:49.779Z,24.60
2019-01-25T22:30:37.624Z,18.53
2019-01-25T22:33:25.549Z,23.17
2019-01-25T22:36:13.758Z,21.63
2019-01-25T22:39:01.708Z,23.13
2019-01-25T22:41:49.906Z,23.33
2019-01-25T22:44:38.684Z,20.13
2019-01-25T22:47:26.806Z,22.97
2019-01-25T22:50:17.507Z,20.83
2019-01-25T22:53:06.111Z,26.00
2019-01-25T22:55:54.401Z,22.13
2019-01-25T22:58:42.033Z,19.53
2019-01-25T23:01:31.860Z,19.50
2019-01-25T23:05:10.310Z,21.77
2019-01-25T23:07:58.802Z,19.57
2019-01-25T23:10:46.685Z,18.90
2019-01-25T23:13:34.399Z,22.90
2019-01-25T23:16:22.447Z,17.03
2019-01-25T23:19:10.622Z,18.30
2019-01-25T23:21:58.526Z,23.27
2019-01-25T23:24:46.584Z,21.83
2019-01-25T23:27:34.443Z,20.03
2019-01-25T23:30:22.471Z,18.27
2019-01-25T23:33:10.121Z,18.60
2019-01-25T23:35:57.613Z,18.27
2019-01-25T23:38:45.512Z,19.83
2019-01-25T23:41:33.938Z,19.37
2019-01-25T23:44:21.700Z,17.70
2019-01-25T23:47:09.242Z,18.77
2019-01-25T23:49:57.160Z,19.17
2019-01-25T23:52:45.490Z,17.67
2019-01-25T23:55:33.306Z,17.07
2019-01-25T23:58:21.192Z,18.50
